SAS98K EKCH-EPKK
Flight info
| Callsign | SAS98K |
|---|---|
| Flight time | 1h 13m |
| Altitude | 35000 |
| Route | SIMEG Z493 XELOL DCT ADVAB L623 UWLER |
| Aircraft | A319/M-SDE2E3FGIJ1RWXY/E |
Departure
| Time | 2026-04-24 06:05 |
|---|---|
| Airport | Copenhagen Kastrup Airport (EKCH) |
Arrival
| Time | 2026-04-24 07:18 |
|---|---|
| Airport | Kraków John Paul II International Airport (EPKK) |
| Time | Latitude | Longitude | Altitude | Speed | Heading |
|---|---|---|---|---|---|
| 2026-04-24 05:32 | 55.62837 | 12.66627 | 17 ft | 0 kts | 131° |
| 2026-04-24 05:52 | 55.62841 | 12.66618 | 18 ft | 4 kts | 133° |
| 2026-04-24 05:52 | 55.62859 | 12.66583 | 17 ft | 4 kts | 116° |
| 2026-04-24 05:53 | 55.62865 | 12.66550 | 17 ft | 4 kts | 117° |
| 2026-04-24 05:53 | 55.62878 | 12.66533 | 17 ft | 4 kts | 201° |
| 2026-04-24 05:53 | 55.62896 | 12.66552 | 17 ft | 0 kts | 221° |
| 2026-04-24 05:56 | 55.62895 | 12.66552 | 17 ft | 0 kts | 221° |
| 2026-04-24 05:56 | 55.62885 | 12.66535 | 17 ft | 4 kts | 221° |
| 2026-04-24 05:57 | 55.62855 | 12.66489 | 18 ft | 7 kts | 221° |
| 2026-04-24 05:57 | 55.62808 | 12.66416 | 18 ft | 11 kts | 221° |
| 2026-04-24 05:57 | 55.62744 | 12.66318 | 18 ft | 13 kts | 221° |
| 2026-04-24 05:57 | 55.62669 | 12.66202 | 19 ft | 15 kts | 220° |
| 2026-04-24 05:58 | 55.62589 | 12.66135 | 17 ft | 12 kts | 181° |
| 2026-04-24 05:58 | 55.62504 | 12.66197 | 17 ft | 13 kts | 139° |
| 2026-04-24 05:58 | 55.62431 | 12.66177 | 18 ft | 12 kts | 221° |
| 2026-04-24 05:58 | 55.62361 | 12.66067 | 17 ft | 14 kts | 221° |
| 2026-04-24 05:59 | 55.62300 | 12.65926 | 19 ft | 15 kts | 260° |
| 2026-04-24 05:59 | 55.62297 | 12.65747 | 17 ft | 15 kts | 269° |
| 2026-04-24 05:59 | 55.62295 | 12.65580 | 17 ft | 14 kts | 268° |
| 2026-04-24 05:59 | 55.62293 | 12.65398 | 17 ft | 14 kts | 269° |
| 2026-04-24 06:00 | 55.62288 | 12.65240 | 17 ft | 10 kts | 253° |
| 2026-04-24 06:00 | 55.62229 | 12.65195 | 17 ft | 10 kts | 189° |
| 2026-04-24 06:00 | 55.62158 | 12.65124 | 17 ft | 13 kts | 213° |
| 2026-04-24 06:00 | 55.62072 | 12.65024 | 18 ft | 16 kts | 213° |
| 2026-04-24 06:01 | 55.61966 | 12.64903 | 19 ft | 20 kts | 213° |
| 2026-04-24 06:01 | 55.61843 | 12.64761 | 18 ft | 21 kts | 213° |
| 2026-04-24 06:01 | 55.61725 | 12.64626 | 17 ft | 20 kts | 213° |
| 2026-04-24 06:01 | 55.61609 | 12.64492 | 20 ft | 20 kts | 213° |
| 2026-04-24 06:02 | 55.61490 | 12.64355 | 17 ft | 22 kts | 213° |
| 2026-04-24 06:02 | 55.61362 | 12.64208 | 19 ft | 22 kts | 213° |
| 2026-04-24 06:02 | 55.61237 | 12.64063 | 18 ft | 20 kts | 213° |
| 2026-04-24 06:02 | 55.61123 | 12.63933 | 18 ft | 20 kts | 213° |
| 2026-04-24 06:03 | 55.60998 | 12.63790 | 17 ft | 22 kts | 213° |
| 2026-04-24 06:03 | 55.60877 | 12.63651 | 18 ft | 18 kts | 213° |
| 2026-04-24 06:03 | 55.60791 | 12.63593 | 18 ft | 12 kts | 166° |
| 2026-04-24 06:03 | 55.60731 | 12.63699 | 18 ft | 14 kts | 130° |
| 2026-04-24 06:04 | 55.60677 | 12.63825 | 19 ft | 11 kts | 107° |
| 2026-04-24 06:04 | 55.60739 | 12.63969 | 20 ft | 31 kts | 41° |
| 2026-04-24 06:04 | 55.61097 | 12.64523 | 18 ft | 103 kts | 41° |
| 2026-04-24 06:04 | 55.61794 | 12.65590 | 61 ft | 154 kts | 39° |
| 2026-04-24 06:05 | 55.62583 | 12.66778 | 701 ft | 146 kts | 38° |
| 2026-04-24 06:05 | 55.63097 | 12.67550 | 1115 ft | 146 kts | 37° |
| 2026-04-24 06:05 | 55.63952 | 12.69506 | 1686 ft | 164 kts | 71° |
| 2026-04-24 06:05 | 55.63954 | 12.71615 | 2064 ft | 184 kts | 105° |
| 2026-04-24 06:06 | 55.63340 | 12.73719 | 2458 ft | 205 kts | 127° |
| 2026-04-24 06:06 | 55.62342 | 12.75755 | 2893 ft | 232 kts | 130° |
| 2026-04-24 06:06 | 55.61583 | 12.77233 | 3292 ft | 247 kts | 130° |
| 2026-04-24 06:06 | 55.59963 | 12.80394 | 4172 ft | 275 kts | 129° |
| 2026-04-24 06:07 | 55.59098 | 12.82126 | 4792 ft | 279 kts | 129° |
| 2026-04-24 06:07 | 55.57823 | 12.84716 | 5896 ft | 280 kts | 129° |
| 2026-04-24 06:07 | 55.56547 | 12.87334 | 6910 ft | 283 kts | 129° |
| 2026-04-24 06:07 | 55.55247 | 12.89994 | 7837 ft | 289 kts | 129° |
| 2026-04-24 06:08 | 55.53915 | 12.92704 | 8718 ft | 295 kts | 129° |
| 2026-04-24 06:08 | 55.52568 | 12.95429 | 9559 ft | 302 kts | 129° |
| 2026-04-24 06:08 | 55.51167 | 12.98244 | 10347 ft | 311 kts | 129° |
| 2026-04-24 06:08 | 55.49683 | 13.01220 | 10682 ft | 335 kts | 129° |
| 2026-04-24 06:09 | 55.48103 | 13.04381 | 11187 ft | 350 kts | 129° |
| 2026-04-24 06:09 | 55.46475 | 13.07630 | 11887 ft | 357 kts | 129° |
| 2026-04-24 06:09 | 55.44814 | 13.10933 | 12593 ft | 363 kts | 129° |
| 2026-04-24 06:09 | 55.43130 | 13.14286 | 13356 ft | 367 kts | 129° |
| 2026-04-24 06:10 | 55.41436 | 13.17658 | 14133 ft | 369 kts | 130° |
| 2026-04-24 06:10 | 55.39722 | 13.21061 | 14853 ft | 373 kts | 130° |
| 2026-04-24 06:10 | 55.37989 | 13.24502 | 15530 ft | 378 kts | 130° |
| 2026-04-24 06:11 | 55.34463 | 13.31484 | 16853 ft | 386 kts | 130° |
| 2026-04-24 06:11 | 55.32663 | 13.35031 | 17487 ft | 391 kts | 131° |
| 2026-04-24 06:11 | 55.30847 | 13.38606 | 18117 ft | 395 kts | 131° |
| 2026-04-24 06:11 | 55.29009 | 13.42219 | 18730 ft | 399 kts | 131° |
| 2026-04-24 06:12 | 55.27151 | 13.45865 | 19331 ft | 403 kts | 131° |
| 2026-04-24 06:12 | 55.25276 | 13.49544 | 19938 ft | 407 kts | 131° |
| 2026-04-24 06:12 | 55.23389 | 13.53267 | 20527 ft | 410 kts | 130° |
| 2026-04-24 06:12 | 55.21505 | 13.57052 | 21103 ft | 414 kts | 130° |
| 2026-04-24 06:13 | 55.19620 | 13.60884 | 21661 ft | 417 kts | 130° |
| 2026-04-24 06:13 | 55.17719 | 13.64754 | 22190 ft | 421 kts | 130° |
| 2026-04-24 06:13 | 55.15797 | 13.68654 | 22710 ft | 425 kts | 130° |
| 2026-04-24 06:13 | 55.13854 | 13.72575 | 23234 ft | 429 kts | 130° |
| 2026-04-24 06:14 | 55.11887 | 13.76524 | 23743 ft | 432 kts | 130° |
| 2026-04-24 06:14 | 55.09904 | 13.80496 | 24221 ft | 436 kts | 130° |
| 2026-04-24 06:14 | 55.07902 | 13.84490 | 24698 ft | 439 kts | 130° |
| 2026-04-24 06:14 | 55.05881 | 13.88510 | 25171 ft | 442 kts | 130° |
| 2026-04-24 06:15 | 55.03842 | 13.92554 | 25639 ft | 445 kts | 130° |
| 2026-04-24 06:15 | 55.01794 | 13.96616 | 26094 ft | 447 kts | 130° |
| 2026-04-24 06:15 | 54.99735 | 14.00700 | 26538 ft | 450 kts | 130° |
| 2026-04-24 06:15 | 54.97666 | 14.04808 | 26952 ft | 452 kts | 130° |
| 2026-04-24 06:16 | 54.95576 | 14.08944 | 27346 ft | 456 kts | 130° |
| 2026-04-24 06:16 | 54.93469 | 14.13099 | 27752 ft | 458 kts | 131° |
| 2026-04-24 06:16 | 54.91208 | 14.17032 | 28156 ft | 461 kts | 140° |
| 2026-04-24 06:16 | 54.88636 | 14.20383 | 28562 ft | 463 kts | 146° |
| 2026-04-24 06:17 | 54.86013 | 14.23556 | 28974 ft | 465 kts | 146° |
| 2026-04-24 06:17 | 54.83350 | 14.26772 | 29367 ft | 468 kts | 146° |
| 2026-04-24 06:17 | 54.80670 | 14.30008 | 29749 ft | 470 kts | 146° |
| 2026-04-24 06:17 | 54.77979 | 14.33251 | 30124 ft | 473 kts | 146° |
| 2026-04-24 06:18 | 54.75262 | 14.36480 | 30485 ft | 475 kts | 146° |
| 2026-04-24 06:18 | 54.72501 | 14.39656 | 30817 ft | 478 kts | 147° |
| 2026-04-24 06:18 | 54.69709 | 14.42800 | 31129 ft | 481 kts | 148° |
| 2026-04-24 06:18 | 54.66892 | 14.45936 | 31449 ft | 484 kts | 148° |
| 2026-04-24 06:19 | 54.64055 | 14.49083 | 31755 ft | 486 kts | 148° |
| 2026-04-24 06:19 | 54.61210 | 14.52247 | 32158 ft | 486 kts | 148° |
| 2026-04-24 06:19 | 54.58376 | 14.55412 | 32581 ft | 485 kts | 147° |
| 2026-04-24 06:19 | 54.55546 | 14.58582 | 32982 ft | 485 kts | 147° |
| 2026-04-24 06:20 | 54.52724 | 14.61748 | 33380 ft | 485 kts | 147° |
| 2026-04-24 06:20 | 54.49896 | 14.64916 | 33763 ft | 485 kts | 147° |
| 2026-04-24 06:20 | 54.47068 | 14.68075 | 34157 ft | 485 kts | 147° |
| 2026-04-24 06:20 | 54.44238 | 14.71234 | 34549 ft | 485 kts | 147° |
| 2026-04-24 06:21 | 54.41407 | 14.74390 | 34923 ft | 485 kts | 147° |
| 2026-04-24 06:21 | 54.38575 | 14.77538 | 35057 ft | 484 kts | 148° |
| 2026-04-24 06:21 | 54.35773 | 14.80643 | 35081 ft | 476 kts | 148° |
| 2026-04-24 06:22 | 54.30215 | 14.86772 | 35097 ft | 473 kts | 148° |
| 2026-04-24 06:22 | 54.24644 | 14.92593 | 35090 ft | 472 kts | 152° |
| 2026-04-24 06:23 | 54.18838 | 14.97809 | 35085 ft | 472 kts | 154° |
| 2026-04-24 06:23 | 54.12972 | 15.02830 | 35074 ft | 471 kts | 154° |
| 2026-04-24 06:24 | 54.07142 | 15.07950 | 35067 ft | 471 kts | 153° |
| 2026-04-24 06:24 | 54.01342 | 15.13149 | 35068 ft | 471 kts | 153° |
| 2026-04-24 06:25 | 53.95541 | 15.18345 | 35064 ft | 471 kts | 152° |
| 2026-04-24 06:25 | 53.89733 | 15.23503 | 35064 ft | 471 kts | 152° |
| 2026-04-24 06:26 | 53.83918 | 15.28629 | 35065 ft | 471 kts | 152° |
| 2026-04-24 06:26 | 53.78104 | 15.33745 | 35068 ft | 471 kts | 152° |
| 2026-04-24 06:27 | 53.72289 | 15.38850 | 35069 ft | 471 kts | 152° |
| 2026-04-24 06:27 | 53.66470 | 15.43947 | 35074 ft | 471 kts | 152° |
| 2026-04-24 06:28 | 53.60648 | 15.49023 | 35069 ft | 471 kts | 153° |
| 2026-04-24 06:28 | 53.54817 | 15.54089 | 35075 ft | 472 kts | 153° |
| 2026-04-24 06:29 | 53.48983 | 15.59145 | 35074 ft | 472 kts | 152° |
| 2026-04-24 06:29 | 53.43151 | 15.64197 | 35071 ft | 471 kts | 153° |
| 2026-04-24 06:30 | 53.37350 | 15.69193 | 35071 ft | 472 kts | 153° |
| 2026-04-24 06:30 | 53.31510 | 15.74202 | 35079 ft | 471 kts | 153° |
| 2026-04-24 06:31 | 53.25671 | 15.79196 | 35080 ft | 472 kts | 153° |
| 2026-04-24 06:31 | 53.19830 | 15.84180 | 35069 ft | 471 kts | 152° |
| 2026-04-24 06:32 | 53.13992 | 15.89158 | 35067 ft | 471 kts | 152° |
| 2026-04-24 06:32 | 53.08154 | 15.94126 | 35069 ft | 471 kts | 152° |
| 2026-04-24 06:33 | 53.02316 | 15.99067 | 35061 ft | 471 kts | 152° |
| 2026-04-24 06:33 | 52.96471 | 16.03992 | 35055 ft | 471 kts | 152° |
| 2026-04-24 06:34 | 52.90615 | 16.08911 | 35051 ft | 472 kts | 152° |
| 2026-04-24 06:34 | 52.84759 | 16.13820 | 35049 ft | 472 kts | 152° |
| 2026-04-24 06:35 | 52.78892 | 16.18719 | 35054 ft | 472 kts | 152° |
| 2026-04-24 06:35 | 52.73015 | 16.23609 | 35054 ft | 472 kts | 152° |
| 2026-04-24 06:36 | 52.67148 | 16.28477 | 35054 ft | 473 kts | 152° |
| 2026-04-24 06:36 | 52.61274 | 16.33351 | 35058 ft | 472 kts | 152° |
| 2026-04-24 06:37 | 52.55403 | 16.38194 | 35059 ft | 472 kts | 152° |
| 2026-04-24 06:37 | 52.49524 | 16.43026 | 35050 ft | 472 kts | 152° |
| 2026-04-24 06:38 | 52.43649 | 16.47850 | 35044 ft | 472 kts | 152° |
| 2026-04-24 06:38 | 52.37770 | 16.52665 | 35045 ft | 472 kts | 152° |
| 2026-04-24 06:39 | 52.31885 | 16.57462 | 35046 ft | 473 kts | 152° |
| 2026-04-24 06:39 | 52.25997 | 16.62252 | 35046 ft | 473 kts | 152° |
| 2026-04-24 06:40 | 52.20102 | 16.67033 | 35050 ft | 473 kts | 152° |
| 2026-04-24 06:40 | 52.14314 | 16.71982 | 35052 ft | 471 kts | 144° |
| 2026-04-24 06:41 | 52.09413 | 16.78876 | 35056 ft | 464 kts | 129° |
| 2026-04-24 06:41 | 52.04941 | 16.86464 | 35050 ft | 465 kts | 130° |
| 2026-04-24 06:42 | 52.00437 | 16.94009 | 35050 ft | 465 kts | 130° |
| 2026-04-24 06:42 | 51.95929 | 17.01552 | 35057 ft | 465 kts | 129° |
| 2026-04-24 06:43 | 51.91435 | 17.09061 | 35063 ft | 464 kts | 129° |
| 2026-04-24 06:43 | 51.86968 | 17.16500 | 35064 ft | 464 kts | 130° |
| 2026-04-24 06:44 | 51.82469 | 17.23975 | 35064 ft | 463 kts | 129° |
| 2026-04-24 06:44 | 51.78004 | 17.31457 | 35060 ft | 462 kts | 129° |
| 2026-04-24 06:45 | 51.73551 | 17.38959 | 35061 ft | 463 kts | 129° |
| 2026-04-24 06:45 | 51.69070 | 17.46414 | 35063 ft | 463 kts | 130° |
| 2026-04-24 06:46 | 51.64543 | 17.53799 | 35062 ft | 463 kts | 130° |
| 2026-04-24 06:46 | 51.60003 | 17.61157 | 35060 ft | 463 kts | 130° |
| 2026-04-24 06:47 | 51.55471 | 17.68532 | 35061 ft | 464 kts | 130° |
| 2026-04-24 06:47 | 51.50939 | 17.75907 | 35069 ft | 464 kts | 130° |
| 2026-04-24 06:48 | 51.46407 | 17.83269 | 35077 ft | 464 kts | 130° |
| 2026-04-24 06:48 | 51.41863 | 17.90598 | 35074 ft | 463 kts | 130° |
| 2026-04-24 06:49 | 51.37309 | 17.97913 | 35074 ft | 463 kts | 130° |
| 2026-04-24 06:49 | 51.33530 | 18.03983 | 35077 ft | 463 kts | 130° |
| 2026-04-24 06:50 | 51.28981 | 18.11266 | 35071 ft | 463 kts | 130° |
| 2026-04-24 06:50 | 51.23689 | 18.19717 | 35066 ft | 463 kts | 130° |
| 2026-04-24 06:51 | 51.19131 | 18.26964 | 35062 ft | 462 kts | 130° |
| 2026-04-24 06:51 | 51.15317 | 18.33018 | 35063 ft | 462 kts | 130° |
| 2026-04-24 06:52 | 51.10756 | 18.40228 | 34913 ft | 462 kts | 130° |
| 2026-04-24 06:52 | 51.08476 | 18.43823 | 34666 ft | 462 kts | 130° |
| 2026-04-24 06:52 | 51.06191 | 18.47422 | 34413 ft | 461 kts | 130° |
| 2026-04-24 06:52 | 51.03910 | 18.51008 | 34163 ft | 461 kts | 130° |
| 2026-04-24 06:53 | 51.01564 | 18.54483 | 33911 ft | 463 kts | 136° |
| 2026-04-24 06:53 | 50.98907 | 18.57407 | 33661 ft | 467 kts | 146° |
| 2026-04-24 06:53 | 50.95976 | 18.59644 | 33407 ft | 469 kts | 156° |
| 2026-04-24 06:53 | 50.92850 | 18.61135 | 33167 ft | 470 kts | 166° |
| 2026-04-24 06:54 | 50.89645 | 18.62096 | 32913 ft | 468 kts | 168° |
| 2026-04-24 06:54 | 50.86486 | 18.63029 | 32667 ft | 466 kts | 168° |
| 2026-04-24 06:54 | 50.83304 | 18.63973 | 32418 ft | 464 kts | 168° |
| 2026-04-24 06:54 | 50.80140 | 18.64912 | 32151 ft | 460 kts | 168° |
| 2026-04-24 06:55 | 50.77004 | 18.65841 | 31657 ft | 458 kts | 168° |
| 2026-04-24 06:55 | 50.73876 | 18.66766 | 31188 ft | 456 kts | 168° |
| 2026-04-24 06:55 | 50.70765 | 18.67680 | 30707 ft | 454 kts | 168° |
| 2026-04-24 06:55 | 50.67669 | 18.68586 | 30242 ft | 451 kts | 168° |
| 2026-04-24 06:56 | 50.64614 | 18.69627 | 29776 ft | 446 kts | 159° |
| 2026-04-24 06:56 | 50.61830 | 18.71650 | 29341 ft | 436 kts | 142° |
| 2026-04-24 06:56 | 50.59536 | 18.74644 | 28905 ft | 423 kts | 127° |
| 2026-04-24 06:56 | 50.57852 | 18.78335 | 28489 ft | 409 kts | 111° |
| 2026-04-24 06:57 | 50.56819 | 18.82411 | 28089 ft | 395 kts | 97° |
| 2026-04-24 06:57 | 50.56423 | 18.86619 | 27702 ft | 382 kts | 84° |
| 2026-04-24 06:57 | 50.56429 | 18.90757 | 27326 ft | 377 kts | 82° |
| 2026-04-24 06:57 | 50.56445 | 18.94861 | 26948 ft | 374 kts | 82° |
| 2026-04-24 06:58 | 50.56458 | 18.98928 | 26580 ft | 370 kts | 82° |
| 2026-04-24 06:58 | 50.56467 | 19.02960 | 26204 ft | 367 kts | 83° |
| 2026-04-24 06:58 | 50.56472 | 19.06960 | 25833 ft | 364 kts | 83° |
| 2026-04-24 06:58 | 50.56477 | 19.10922 | 25440 ft | 361 kts | 82° |
| 2026-04-24 06:59 | 50.56479 | 19.14847 | 25057 ft | 358 kts | 83° |
| 2026-04-24 06:59 | 50.56467 | 19.18745 | 24687 ft | 354 kts | 83° |
| 2026-04-24 06:59 | 50.56446 | 19.22617 | 24299 ft | 352 kts | 83° |
| 2026-04-24 06:59 | 50.56422 | 19.26424 | 23880 ft | 353 kts | 83° |
| 2026-04-24 07:00 | 50.56401 | 19.30304 | 23313 ft | 354 kts | 83° |
| 2026-04-24 07:00 | 50.56378 | 19.34167 | 22733 ft | 353 kts | 83° |
| 2026-04-24 07:00 | 50.56356 | 19.38014 | 22161 ft | 351 kts | 83° |
| 2026-04-24 07:00 | 50.56332 | 19.41840 | 21585 ft | 349 kts | 83° |
| 2026-04-24 07:01 | 50.56305 | 19.45648 | 21009 ft | 347 kts | 83° |
| 2026-04-24 07:01 | 50.56276 | 19.49439 | 20431 ft | 345 kts | 83° |
| 2026-04-24 07:01 | 50.56247 | 19.53206 | 19857 ft | 343 kts | 83° |
| 2026-04-24 07:01 | 50.56157 | 19.56954 | 19276 ft | 346 kts | 90° |
| 2026-04-24 07:02 | 50.55553 | 19.60659 | 18698 ft | 355 kts | 105° |
| 2026-04-24 07:02 | 50.54336 | 19.64079 | 18119 ft | 363 kts | 122° |
| 2026-04-24 07:02 | 50.52564 | 19.66939 | 17540 ft | 369 kts | 138° |
| 2026-04-24 07:02 | 50.50353 | 19.69026 | 16967 ft | 373 kts | 151° |
| 2026-04-24 07:03 | 50.48036 | 19.70829 | 16391 ft | 371 kts | 151° |
| 2026-04-24 07:03 | 50.45733 | 19.72625 | 15809 ft | 368 kts | 151° |
| 2026-04-24 07:03 | 50.43448 | 19.74417 | 15242 ft | 366 kts | 151° |
| 2026-04-24 07:03 | 50.41184 | 19.76195 | 14738 ft | 362 kts | 152° |
| 2026-04-24 07:04 | 50.38944 | 19.77952 | 14236 ft | 358 kts | 152° |
| 2026-04-24 07:04 | 50.36727 | 19.79689 | 13735 ft | 354 kts | 152° |
| 2026-04-24 07:04 | 50.34536 | 19.81405 | 13241 ft | 351 kts | 152° |
| 2026-04-24 07:04 | 50.32358 | 19.83097 | 12731 ft | 348 kts | 153° |
| 2026-04-24 07:05 | 50.30198 | 19.84772 | 12234 ft | 346 kts | 153° |
| 2026-04-24 07:05 | 50.28054 | 19.86439 | 11731 ft | 343 kts | 153° |
| 2026-04-24 07:05 | 50.25923 | 19.88101 | 11233 ft | 341 kts | 153° |
| 2026-04-24 07:05 | 50.23812 | 19.89771 | 10731 ft | 337 kts | 151° |
| 2026-04-24 07:06 | 50.21974 | 19.91979 | 10231 ft | 332 kts | 131° |
| 2026-04-24 07:06 | 50.20686 | 19.94900 | 9796 ft | 323 kts | 112° |
| 2026-04-24 07:06 | 50.20035 | 19.98182 | 9367 ft | 313 kts | 95° |
| 2026-04-24 07:06 | 50.20018 | 20.01519 | 8941 ft | 303 kts | 78° |
| 2026-04-24 07:07 | 50.20431 | 20.04709 | 8516 ft | 298 kts | 74° |
| 2026-04-24 07:07 | 50.20852 | 20.07813 | 8094 ft | 295 kts | 74° |
| 2026-04-24 07:07 | 50.21691 | 20.14067 | 7236 ft | 290 kts | 75° |
| 2026-04-24 07:08 | 50.22099 | 20.17127 | 6821 ft | 286 kts | 75° |
| 2026-04-24 07:08 | 50.22490 | 20.20075 | 6685 ft | 276 kts | 75° |
| 2026-04-24 07:08 | 50.22875 | 20.22964 | 6555 ft | 268 kts | 75° |
| 2026-04-24 07:08 | 50.23246 | 20.25757 | 6429 ft | 257 kts | 75° |
| 2026-04-24 07:09 | 50.23299 | 20.28509 | 6300 ft | 256 kts | 100° |
| 2026-04-24 07:09 | 50.22520 | 20.30992 | 6179 ft | 257 kts | 131° |
| 2026-04-24 07:09 | 50.21071 | 20.32571 | 6048 ft | 255 kts | 162° |
| 2026-04-24 07:09 | 50.19352 | 20.33202 | 5925 ft | 254 kts | 171° |
| 2026-04-24 07:10 | 50.17614 | 20.33414 | 5798 ft | 249 kts | 193° |
| 2026-04-24 07:10 | 50.16060 | 20.32424 | 5668 ft | 239 kts | 222° |
| 2026-04-24 07:10 | 50.15013 | 20.30503 | 5550 ft | 230 kts | 249° |
| 2026-04-24 07:10 | 50.14573 | 20.28148 | 5417 ft | 226 kts | 263° |
| 2026-04-24 07:11 | 50.14254 | 20.25751 | 5306 ft | 224 kts | 262° |
| 2026-04-24 07:11 | 50.13931 | 20.23462 | 5195 ft | 215 kts | 262° |
| 2026-04-24 07:11 | 50.13625 | 20.21237 | 5099 ft | 206 kts | 262° |
| 2026-04-24 07:11 | 50.13331 | 20.19066 | 5011 ft | 203 kts | 262° |
| 2026-04-24 07:12 | 50.13042 | 20.16928 | 5009 ft | 201 kts | 262° |
| 2026-04-24 07:12 | 50.12756 | 20.14819 | 5006 ft | 192 kts | 262° |
| 2026-04-24 07:12 | 50.12486 | 20.12828 | 4895 ft | 185 kts | 262° |
| 2026-04-24 07:12 | 50.12222 | 20.10878 | 4690 ft | 183 kts | 262° |
| 2026-04-24 07:13 | 50.11959 | 20.08950 | 4471 ft | 181 kts | 262° |
| 2026-04-24 07:13 | 50.11699 | 20.07031 | 4243 ft | 181 kts | 262° |
| 2026-04-24 07:13 | 50.11437 | 20.05112 | 3999 ft | 181 kts | 261° |
| 2026-04-24 07:13 | 50.11178 | 20.03210 | 3799 ft | 176 kts | 261° |
| 2026-04-24 07:14 | 50.10925 | 20.01363 | 3525 ft | 171 kts | 261° |
| 2026-04-24 07:14 | 50.10685 | 19.99609 | 3297 ft | 159 kts | 261° |
| 2026-04-24 07:14 | 50.10461 | 19.97978 | 3102 ft | 148 kts | 261° |
| 2026-04-24 07:14 | 50.10253 | 19.96457 | 2910 ft | 140 kts | 261° |
| 2026-04-24 07:15 | 50.10052 | 19.94986 | 2726 ft | 137 kts | 261° |
| 2026-04-24 07:15 | 50.09853 | 19.93539 | 2529 ft | 136 kts | 260° |
| 2026-04-24 07:15 | 50.09660 | 19.92150 | 2368 ft | 127 kts | 260° |
| 2026-04-24 07:15 | 50.09474 | 19.90816 | 2199 ft | 125 kts | 260° |
| 2026-04-24 07:16 | 50.09288 | 19.89497 | 2042 ft | 124 kts | 259° |
| 2026-04-24 07:16 | 50.09110 | 19.88202 | 1866 ft | 123 kts | 260° |
| 2026-04-24 07:16 | 50.08932 | 19.86902 | 1684 ft | 123 kts | 259° |
| 2026-04-24 07:16 | 50.08748 | 19.85601 | 1542 ft | 123 kts | 260° |
| 2026-04-24 07:17 | 50.08568 | 19.84298 | 1391 ft | 123 kts | 259° |
| 2026-04-24 07:17 | 50.08393 | 19.83000 | 1221 ft | 122 kts | 259° |
| 2026-04-24 07:17 | 50.08215 | 19.81701 | 1051 ft | 123 kts | 259° |
| 2026-04-24 07:17 | 50.08041 | 19.80403 | 897 ft | 123 kts | 259° |
| 2026-04-24 07:18 | 50.07867 | 19.79158 | 802 ft | 106 kts | 258° |
| 2026-04-24 07:18 | 50.07745 | 19.78290 | 800 ft | 57 kts | 257° |
| 2026-04-24 07:18 | 50.07676 | 19.77795 | 798 ft | 41 kts | 258° |
| 2026-04-24 07:18 | 50.07614 | 19.77345 | 800 ft | 39 kts | 258° |
| 2026-04-24 07:19 | 50.07568 | 19.77018 | 802 ft | 27 kts | 257° |
| 2026-04-24 07:19 | 50.07515 | 19.76850 | 803 ft | 15 kts | 204° |
| 2026-04-24 07:19 | 50.07397 | 19.76874 | 800 ft | 19 kts | 166° |
| 2026-04-24 07:19 | 50.07307 | 19.76939 | 800 ft | 11 kts | 111° |
| 2026-04-24 07:20 | 50.07322 | 19.77067 | 800 ft | 14 kts | 77° |
| 2026-04-24 07:20 | 50.07341 | 19.77228 | 800 ft | 16 kts | 79° |
| 2026-04-24 07:20 | 50.07370 | 19.77414 | 800 ft | 19 kts | 78° |
| 2026-04-24 07:20 | 50.07401 | 19.77627 | 800 ft | 21 kts | 78° |
| 2026-04-24 07:21 | 50.07434 | 19.77864 | 800 ft | 23 kts | 77° |
| 2026-04-24 07:21 | 50.07466 | 19.78094 | 800 ft | 21 kts | 78° |
| 2026-04-24 07:21 | 50.07497 | 19.78323 | 800 ft | 21 kts | 78° |
| 2026-04-24 07:21 | 50.07528 | 19.78539 | 800 ft | 21 kts | 77° |
| 2026-04-24 07:22 | 50.07559 | 19.78761 | 800 ft | 21 kts | 77° |
| 2026-04-24 07:22 | 50.07590 | 19.78985 | 800 ft | 21 kts | 78° |
| 2026-04-24 07:22 | 50.07618 | 19.79192 | 800 ft | 18 kts | 78° |
| 2026-04-24 07:22 | 50.07643 | 19.79372 | 800 ft | 17 kts | 77° |
| 2026-04-24 07:23 | 50.07667 | 19.79538 | 800 ft | 15 kts | 77° |
| 2026-04-24 07:23 | 50.07688 | 19.79694 | 800 ft | 15 kts | 78° |
| 2026-04-24 07:23 | 50.07705 | 19.79831 | 800 ft | 10 kts | 93° |
| 2026-04-24 07:23 | 50.07650 | 19.79887 | 800 ft | 10 kts | 167° |
| 2026-04-24 07:24 | 50.07582 | 19.79909 | 800 ft | 10 kts | 168° |
| 2026-04-24 07:24 | 50.07519 | 19.79936 | 800 ft | 9 kts | 144° |
| 2026-04-24 07:24 | 50.07515 | 19.80018 | 800 ft | 8 kts | 77° |
| 2026-04-24 07:24 | 50.07526 | 19.80096 | 800 ft | 7 kts | 78° |
| 2026-04-24 07:25 | 50.07538 | 19.80169 | 800 ft | 6 kts | 60° |
| 2026-04-24 07:25 | 50.07557 | 19.80168 | 800 ft | 2 kts | 340° |
| 2026-04-24 07:25 | 50.07572 | 19.80163 | 800 ft | 2 kts | 347° |
| 2026-04-24 07:25 | 50.07585 | 19.80158 | 800 ft | 0 kts | 347° |